createdAt,value
2018-09-06T00:00:06.334Z,0.00
2018-09-06T00:01:06.259Z,0.00
2018-09-06T00:02:06.178Z,0.00
2018-09-06T00:03:06.126Z,0.00
2018-09-06T00:04:06.020Z,0.00
2018-09-06T00:05:05.951Z,0.00
2018-09-06T00:06:05.857Z,0.00
2018-09-06T00:08:47.695Z,0.00
2018-09-06T00:09:47.602Z,0.00
2018-09-06T00:10:47.526Z,0.00
2018-09-06T00:11:47.479Z,0.00
2018-09-06T00:12:47.402Z,0.00
2018-09-06T00:13:47.308Z,0.00
2018-09-06T00:14:47.198Z,0.00
2018-09-06T00:15:47.143Z,0.00
2018-09-06T00:16:47.080Z,0.00
2018-09-06T00:19:29.199Z,0.00
2018-09-06T00:20:29.117Z,0.00
2018-09-06T00:21:29.021Z,0.00
2018-09-06T00:22:28.979Z,0.00
2018-09-06T00:23:28.863Z,0.00
2018-09-06T00:24:29.811Z,0.00
2018-09-06T00:25:28.754Z,0.00
2018-09-06T00:28:10.694Z,0.00
2018-09-06T00:29:10.690Z,0.00
2018-09-06T00:30:10.535Z,0.00
2018-09-06T00:31:10.463Z,0.00
2018-09-06T00:32:10.377Z,0.00
2018-09-06T00:34:52.206Z,0.00
2018-09-06T00:35:52.123Z,0.00
2018-09-06T00:36:52.029Z,0.00
2018-09-06T00:37:51.959Z,0.00
2018-09-06T00:38:51.897Z,0.00
2018-09-06T00:39:51.800Z,0.00
2018-09-06T00:40:51.715Z,0.00
2018-09-06T00:41:51.641Z,0.00
2018-09-06T00:42:51.557Z,0.00
2018-09-06T00:43:51.480Z,0.00
2018-09-06T00:44:51.422Z,0.00
2018-09-06T00:45:51.331Z,0.00
2018-09-06T00:46:51.248Z,0.00
2018-09-06T00:47:51.171Z,0.00
2018-09-06T00:48:51.084Z,0.00
2018-09-06T00:49:51.035Z,0.00
2018-09-06T00:50:50.951Z,0.00
2018-09-06T00:53:33.188Z,0.00
2018-09-06T00:54:33.137Z,0.00
2018-09-06T00:55:33.034Z,0.00
2018-09-06T00:58:15.199Z,0.00
2018-09-06T00:59:15.123Z,0.00
2018-09-06T01:00:15.048Z,0.00
2018-09-06T01:01:15.142Z,0.00
2018-09-06T01:02:14.883Z,0.00
2018-09-06T01:03:14.809Z,0.00
2018-09-06T01:04:14.717Z,0.00
2018-09-06T01:05:14.669Z,0.00
2018-09-06T01:06:14.563Z,0.00
2018-09-06T01:07:14.493Z,0.00
2018-09-06T01:08:14.412Z,0.00
2018-09-06T01:10:56.706Z,0.00
2018-09-06T01:12:17.601Z,0.00
2018-09-06T01:12:56.538Z,0.00
2018-09-06T01:13:56.464Z,0.00
2018-09-06T01:14:56.384Z,0.00
2018-09-06T01:15:56.338Z,0.00
2018-09-06T01:16:56.218Z,0.00
2018-09-06T01:17:56.160Z,0.00
2018-09-06T01:18:56.067Z,0.00
2018-09-06T01:19:55.996Z,0.00
2018-09-06T01:20:55.929Z,0.00
2018-09-06T01:21:55.834Z,0.00
2018-09-06T01:22:55.750Z,0.00
2018-09-06T01:23:55.685Z,0.00
2018-09-06T01:24:55.595Z,0.00
2018-09-06T01:25:55.547Z,0.00
2018-09-06T01:26:55.440Z,0.00
2018-09-06T01:29:37.698Z,0.00
2018-09-06T01:30:37.633Z,0.00
2018-09-06T01:31:37.563Z,0.00
2018-09-06T01:32:37.468Z,0.00
2018-09-06T01:59:18.743Z,0.00
2018-09-06T02:00:18.626Z,0.00
2018-09-06T02:01:18.573Z,0.00
2018-09-06T02:02:18.515Z,0.00
2018-09-06T02:03:18.403Z,0.00
2018-09-06T02:04:18.325Z,0.00
2018-09-06T02:05:18.244Z,0.00
2018-09-06T02:06:18.174Z,0.00
2018-09-06T02:07:18.109Z,0.00
2018-09-06T02:08:18.010Z,0.00
2018-09-06T02:09:17.931Z,0.00
2018-09-06T02:10:17.842Z,0.00
2018-09-06T02:11:17.785Z,0.00
2018-09-06T02:12:17.736Z,0.00
2018-09-06T02:13:17.634Z,0.00
2018-09-06T02:14:17.544Z,0.00
2018-09-06T02:15:17.459Z,0.00
2018-09-06T02:16:17.378Z,0.00
2018-09-06T02:17:17.304Z,0.00
2018-09-06T02:18:17.249Z,0.00
2018-09-06T02:19:17.150Z,0.00
2018-09-06T02:20:17.060Z,0.00
2018-09-06T02:21:17.002Z,0.00
2018-09-06T02:22:16.903Z,0.00
2018-09-06T02:23:16.861Z,0.00
2018-09-06T02:24:16.762Z,0.00
2018-09-06T02:26:58.720Z,0.00
2018-09-06T02:29:40.742Z,0.00
2018-09-06T02:30:40.650Z,0.00
2018-09-06T02:31:40.570Z,0.00
2018-09-06T02:34:22.750Z,0.00
2018-09-06T02:37:04.736Z,0.00
2018-09-06T02:38:04.703Z,0.00
2018-09-06T02:39:04.579Z,0.00
2018-09-06T02:40:04.498Z,0.00
2018-09-06T02:41:04.409Z,0.00
2018-09-06T02:42:04.340Z,0.00
2018-09-06T02:43:04.252Z,0.00
2018-09-06T02:44:05.203Z,0.00
2018-09-06T02:45:04.164Z,0.00
2018-09-06T02:46:04.017Z,0.00
2018-09-06T02:47:03.935Z,0.00
2018-09-06T02:48:03.868Z,0.00
2018-09-06T02:49:03.776Z,0.00
2018-09-06T02:50:03.722Z,0.00
2018-09-06T02:51:03.621Z,0.00
2018-09-06T02:52:03.559Z,0.00
2018-09-06T02:53:03.463Z,0.00
2018-09-06T02:54:03.478Z,0.00
2018-09-06T02:55:03.352Z,0.00
2018-09-06T02:56:03.223Z,0.00
2018-09-06T02:57:03.161Z,0.00
2018-09-06T02:58:03.133Z,0.00
2018-09-06T02:59:02.994Z,0.00
2018-09-06T03:00:02.932Z,0.00
2018-09-06T03:01:02.823Z,0.00
2018-09-06T03:02:02.752Z,0.00
2018-09-06T03:03:02.673Z,0.00
2018-09-06T03:04:02.596Z,0.00
2018-09-06T03:05:02.534Z,0.00
2018-09-06T03:06:02.441Z,0.00
2018-09-06T03:07:02.359Z,0.00
2018-09-06T03:08:02.279Z,0.00
2018-09-06T03:09:02.197Z,0.00
2018-09-06T03:10:02.155Z,0.00
2018-09-06T03:11:02.144Z,0.00
2018-09-06T03:12:01.966Z,0.00
2018-09-06T03:13:01.890Z,0.00
2018-09-06T03:14:01.814Z,0.00
2018-09-06T03:15:01.723Z,0.00
2018-09-06T03:16:02.666Z,0.00
2018-09-06T03:17:01.577Z,0.00
2018-09-06T03:19:43.744Z,0.00
2018-09-06T03:20:43.679Z,0.00
2018-09-06T03:21:43.600Z,0.00
2018-09-06T03:22:43.505Z,0.00
2018-09-06T03:23:43.421Z,0.00
2018-09-06T03:24:43.358Z,0.00
2018-09-06T03:25:43.268Z,0.00
2018-09-06T03:26:43.214Z,0.00
2018-09-06T03:27:43.105Z,0.00
2018-09-06T03:28:43.040Z,0.00
2018-09-06T03:29:42.946Z,0.00
2018-09-06T03:30:42.871Z,0.00
2018-09-06T03:31:42.818Z,0.00
2018-09-06T03:32:42.732Z,0.00
2018-09-06T03:33:42.628Z,0.00
2018-09-06T03:36:24.772Z,0.00
2018-09-06T03:37:24.670Z,0.00
2018-09-06T03:38:24.575Z,0.00
2018-09-06T03:39:24.522Z,0.00
2018-09-06T03:40:24.437Z,0.00
2018-09-06T03:41:24.379Z,0.00
2018-09-06T03:42:24.270Z,0.00
2018-09-06T03:43:24.281Z,0.00
2018-09-06T03:44:24.126Z,0.00
2018-09-06T03:45:24.037Z,0.00
2018-09-06T03:46:23.946Z,0.00
2018-09-06T03:47:23.904Z,0.00
2018-09-06T03:48:23.805Z,0.00
2018-09-06T03:49:23.716Z,0.00
2018-09-06T03:50:23.628Z,0.00
2018-09-06T03:51:23.556Z,0.00
2018-09-06T03:52:23.495Z,0.00
2018-09-06T03:53:23.411Z,0.00
2018-09-06T03:54:23.317Z,0.00
2018-09-06T03:55:23.313Z,0.00
2018-09-06T03:56:23.150Z,0.00
2018-09-06T03:57:23.159Z,0.00
2018-09-06T03:58:23.001Z,0.00
2018-09-06T03:59:23.035Z,0.00
2018-09-06T04:00:22.852Z,0.00
2018-09-06T04:01:22.839Z,0.00
2018-09-06T04:02:22.710Z,0.00
2018-09-06T04:03:22.647Z,0.00
2018-09-06T04:04:22.533Z,0.00
2018-09-06T04:05:22.464Z,0.00
2018-09-06T04:06:22.358Z,0.00
2018-09-06T04:07:22.344Z,0.00
2018-09-06T04:08:22.225Z,0.00
2018-09-06T04:09:22.180Z,0.00
2018-09-06T04:10:22.052Z,0.00
2018-09-06T04:11:22.090Z,0.00
2018-09-06T04:12:21.891Z,0.00
2018-09-06T04:13:21.948Z,0.00
2018-09-06T04:14:21.724Z,0.00
2018-09-06T04:15:21.705Z,0.00
2018-09-06T04:16:21.581Z,0.00
2018-09-06T04:17:21.512Z,0.00
2018-09-06T04:18:21.460Z,0.00
2018-09-06T04:19:21.424Z,0.00
2018-09-06T04:20:21.263Z,0.00
2018-09-06T04:21:21.241Z,0.00
2018-09-06T04:22:21.111Z,0.00
2018-09-06T04:23:22.110Z,0.00
2018-09-06T04:24:21.033Z,0.00
2018-09-06T04:25:20.958Z,0.00
2018-09-06T04:26:20.776Z,0.00
2018-09-06T04:27:20.769Z,0.00
2018-09-06T04:28:20.623Z,0.00
2018-09-06T04:29:20.577Z,0.00
2018-09-06T04:30:20.469Z,0.00
2018-09-06T04:31:20.494Z,0.00
2018-09-06T04:32:20.299Z,0.00
2018-09-06T04:33:20.296Z,0.00
2018-09-06T04:34:20.162Z,0.00
2018-09-06T04:35:20.110Z,0.00
2018-09-06T04:36:20.050Z,0.00
2018-09-06T04:37:20.019Z,4.00
2018-09-06T04:38:19.825Z,0.00
2018-09-06T04:39:19.849Z,4.00
2018-09-06T04:40:19.689Z,4.00
2018-09-06T04:41:19.627Z,0.00
2018-09-06T04:42:19.499Z,4.00
2018-09-06T04:43:19.549Z,8.00
2018-09-06T04:44:19.346Z,4.00
2018-09-06T04:45:20.403Z,8.00
2018-09-06T04:46:19.186Z,8.00
2018-09-06T04:49:01.266Z,12.00
2018-09-06T04:50:02.327Z,16.00
2018-09-06T04:51:01.107Z,16.00
2018-09-06T04:52:01.075Z,20.00
2018-09-06T04:53:00.952Z,20.00
2018-09-06T04:54:00.972Z,24.00
2018-09-06T04:55:00.801Z,28.00
2018-09-06T04:56:00.720Z,24.00
2018-09-06T04:57:00.633Z,28.00
2018-09-06T04:58:00.553Z,32.00
2018-09-06T04:59:00.489Z,36.00
2018-09-06T05:00:00.429Z,40.00
2018-09-06T05:01:00.312Z,40.00
2018-09-06T05:03:42.268Z,52.00
2018-09-06T05:06:24.291Z,60.00
2018-09-06T05:07:24.200Z,60.00
2018-09-06T05:08:24.113Z,64.00
2018-09-06T05:09:24.044Z,64.00
2018-09-06T05:10:23.981Z,64.00
2018-09-06T05:13:18.285Z,68.00
2018-09-06T05:14:18.221Z,72.00
2018-09-06T05:15:18.135Z,80.00
2018-09-06T05:16:18.060Z,84.00
2018-09-06T05:17:18.009Z,88.00
2018-09-06T05:18:17.871Z,92.00
2018-09-06T05:19:17.798Z,96.00
2018-09-06T05:20:17.729Z,96.00
2018-09-06T05:21:17.674Z,100.00
2018-09-06T05:22:17.559Z,104.00
2018-09-06T05:23:17.494Z,104.00
2018-09-06T05:24:17.400Z,108.00
2018-09-06T05:25:17.320Z,108.00
2018-09-06T05:26:17.259Z,116.00
2018-09-06T05:27:17.173Z,116.00
2018-09-06T05:28:17.086Z,120.00
2018-09-06T05:29:17.004Z,128.00
2018-09-06T05:30:16.922Z,132.00
2018-09-06T05:31:16.908Z,136.00
2018-09-06T05:32:16.787Z,144.00
2018-09-06T05:33:16.699Z,148.00
2018-09-06T05:34:16.620Z,156.00
2018-09-06T05:35:16.707Z,164.00
2018-09-06T05:36:16.545Z,180.00
2018-09-06T05:37:16.379Z,196.00
2018-09-06T05:38:16.283Z,212.00
2018-09-06T05:39:16.207Z,224.00
2018-09-06T05:40:16.138Z,240.00
2018-09-06T05:41:17.071Z,256.00
2018-09-06T05:42:15.965Z,272.00
2018-09-06T05:43:15.907Z,292.00
2018-09-06T05:44:15.818Z,308.00
2018-09-06T05:45:15.748Z,332.00
2018-09-06T05:46:15.668Z,352.00
2018-09-06T05:47:16.604Z,372.00
2018-09-06T05:48:15.494Z,392.00
2018-09-06T05:49:15.411Z,408.00
2018-09-06T05:50:15.334Z,424.00
2018-09-06T05:51:15.283Z,432.00
2018-09-06T05:52:15.184Z,440.00
2018-09-06T05:54:57.279Z,472.00
2018-09-06T05:57:39.325Z,472.00
2018-09-06T05:58:39.208Z,484.00
2018-09-06T05:59:39.166Z,496.00
2018-09-06T06:00:39.064Z,504.00
2018-09-06T06:01:38.984Z,504.00
2018-09-06T06:02:38.891Z,500.00
2018-09-06T06:03:38.815Z,508.00
2018-09-06T06:04:38.737Z,508.00
2018-09-06T06:05:38.651Z,520.00
2018-09-06T06:06:39.586Z,536.00
2018-09-06T06:07:38.482Z,552.00
2018-09-06T06:08:38.418Z,568.00
2018-09-06T06:09:38.434Z,584.00
2018-09-06T06:10:38.257Z,604.00
2018-09-06T06:11:38.187Z,624.00
2018-09-06T06:12:38.293Z,652.00
2018-09-06T06:13:38.017Z,680.00
2018-09-06T06:16:20.298Z,748.00
2018-09-06T06:17:20.221Z,780.00
2018-09-06T06:18:20.143Z,808.00
2018-09-06T06:19:20.072Z,840.00
2018-09-06T06:20:19.977Z,872.00
2018-09-06T06:23:01.791Z,1024.00
2018-09-06T06:24:02.745Z,1096.00
2018-09-06T06:25:01.664Z,1172.00
2018-09-06T06:26:01.642Z,1220.00
2018-09-06T06:27:01.478Z,1276.00
2018-09-06T06:29:43.305Z,1368.00
2018-09-06T06:30:43.286Z,1420.00
2018-09-06T06:58:05.250Z,836.00
2018-09-06T06:59:05.173Z,824.00
2018-09-06T07:00:05.083Z,824.00
2018-09-06T07:01:05.094Z,836.00
2018-09-06T07:02:04.925Z,864.00
2018-09-06T07:03:04.840Z,888.00
2018-09-06T07:04:04.832Z,924.00
2018-09-06T07:05:04.665Z,952.00
2018-09-06T07:06:04.600Z,992.00
2018-09-06T07:07:04.538Z,1024.00
2018-09-06T07:08:04.437Z,1068.00
2018-09-06T07:09:04.393Z,1104.00
2018-09-06T07:10:04.279Z,1136.00
2018-09-06T07:11:04.209Z,1152.00
2018-09-06T07:12:04.112Z,1160.00
2018-09-06T07:13:04.054Z,1164.00
2018-09-06T07:14:04.003Z,1152.00
2018-09-06T07:15:03.910Z,1136.00
2018-09-06T07:16:03.808Z,1140.00
2018-09-06T07:17:03.738Z,1128.00
2018-09-06T07:18:03.788Z,1136.00
2018-09-06T07:19:03.693Z,1164.00
2018-09-06T07:20:03.487Z,1164.00
2018-09-06T07:21:03.490Z,1200.00
2018-09-06T07:23:45.309Z,1328.00
2018-09-06T07:24:45.410Z,1408.00
2018-09-06T07:25:45.161Z,1460.00
2018-09-06T07:26:45.104Z,1540.00
2018-09-06T07:27:44.992Z,1620.00
2018-09-06T07:28:44.919Z,1696.00
2018-09-06T07:29:44.824Z,1776.00
2018-09-06T07:30:44.785Z,1884.00
2018-09-06T07:31:44.672Z,1936.00
2018-09-06T07:32:44.606Z,2024.00
2018-09-06T07:33:44.522Z,2084.00
2018-09-06T07:34:44.477Z,2152.00
2018-09-06T07:35:44.388Z,2236.00
2018-09-06T07:36:44.288Z,2336.00
2018-09-06T07:37:44.198Z,2424.00
2018-09-06T07:40:26.345Z,2688.00
2018-09-06T07:43:08.321Z,2984.00
2018-09-06T07:45:50.352Z,3480.00
2018-09-06T07:48:58.317Z,4076.00
2018-09-06T07:49:58.244Z,4340.00
2018-09-06T07:50:58.192Z,4632.00
2018-09-06T07:51:58.076Z,4768.00
2018-09-06T07:52:58.005Z,4872.00
2018-09-06T07:53:57.927Z,5104.00
2018-09-06T07:54:57.875Z,5120.00
2018-09-06T07:55:57.782Z,5156.00
2018-09-06T07:56:57.691Z,5176.00
2018-09-06T07:57:57.618Z,5076.00
2018-09-06T07:58:57.539Z,4924.00
2018-09-06T07:59:57.456Z,4828.00
2018-09-06T08:00:57.367Z,4696.00
2018-09-06T08:01:57.304Z,4844.00
2018-09-06T08:02:57.212Z,4436.00
2018-09-06T08:03:57.132Z,4312.00
2018-09-06T08:04:57.063Z,4252.00
2018-09-06T08:05:56.967Z,4136.00
2018-09-06T08:06:56.938Z,4076.00
2018-09-06T08:07:56.814Z,4016.00
2018-09-06T08:10:38.823Z,4156.00
2018-09-06T08:13:20.844Z,4800.00
2018-09-06T08:14:20.777Z,5128.00
2018-09-06T08:15:20.672Z,5384.00
2018-09-06T08:41:42.474Z,2496.00
2018-09-06T08:42:42.370Z,2432.00
2018-09-06T08:43:42.314Z,2348.00
2018-09-06T08:44:42.218Z,2268.00
2018-09-06T08:45:42.132Z,2220.00
2018-09-06T08:46:42.054Z,2220.00
2018-09-06T08:47:42.020Z,2252.00
2018-09-06T08:48:41.938Z,2272.00
2018-09-06T08:49:41.809Z,2308.00
2018-09-06T08:50:41.750Z,2344.00
2018-09-06T08:51:41.669Z,2436.00
2018-09-06T08:54:23.856Z,2660.00
2018-09-06T08:55:23.781Z,2660.00
2018-09-06T08:56:23.715Z,2584.00
2018-09-06T08:57:23.612Z,2500.00
2018-09-06T08:58:23.556Z,2516.00
2018-09-06T08:59:23.485Z,2556.00
2018-09-06T09:00:23.361Z,2600.00
2018-09-06T09:01:23.299Z,2644.00
2018-09-06T09:02:23.268Z,2752.00
2018-09-06T09:03:23.222Z,2908.00
2018-09-06T09:04:23.074Z,3104.00
2018-09-06T09:05:22.984Z,3228.00
2018-09-06T09:06:22.894Z,3368.00
2018-09-06T09:07:22.825Z,3572.00
2018-09-06T09:08:22.798Z,3764.00
2018-09-06T09:09:22.712Z,3900.00
2018-09-06T09:10:22.624Z,3944.00
2018-09-06T09:11:22.543Z,3924.00
2018-09-06T09:12:22.466Z,3844.00
2018-09-06T09:13:22.418Z,3644.00
2018-09-06T09:14:22.301Z,3436.00
2018-09-06T09:15:22.239Z,3180.00
2018-09-06T09:16:22.153Z,3004.00
2018-09-06T09:19:04.349Z,2680.00
2018-09-06T09:20:04.307Z,2528.00
2018-09-06T09:21:04.184Z,2356.00
2018-09-06T09:22:04.246Z,2216.00
2018-09-06T09:23:04.030Z,2112.00
2018-09-06T09:24:03.962Z,1988.00
2018-09-06T09:25:03.898Z,1864.00
2018-09-06T09:26:03.823Z,1668.00
2018-09-06T09:27:03.722Z,1436.00
2018-09-06T09:28:03.651Z,1260.00
2018-09-06T09:29:03.575Z,1148.00
2018-09-06T09:30:03.558Z,1056.00
2018-09-06T09:31:03.398Z,1060.00
2018-09-06T09:32:03.342Z,1000.00
2018-09-06T09:33:03.242Z,948.00
2018-09-06T09:34:03.190Z,824.00
2018-09-06T09:35:03.119Z,800.00
2018-09-06T09:36:03.058Z,812.00
2018-09-06T09:37:02.952Z,892.00
2018-09-06T09:38:02.855Z,932.00
2018-09-06T09:39:02.767Z,964.00
2018-09-06T09:40:02.727Z,1012.00
2018-09-06T09:41:02.628Z,1044.00
2018-09-06T09:42:02.536Z,1108.00
2018-09-06T09:43:02.455Z,1144.00
2018-09-06T09:44:02.378Z,1124.00
2018-09-06T09:49:37.332Z,1752.00
2018-09-06T09:50:59.227Z,1868.00
2018-09-06T09:51:37.119Z,2032.00
2018-09-06T09:52:37.045Z,2140.00
2018-09-06T09:53:36.976Z,2040.00
2018-09-06T09:54:36.880Z,1956.00
2018-09-06T09:55:36.814Z,1764.00
2018-09-06T09:56:36.752Z,1560.00
2018-09-06T09:57:36.667Z,1352.00
2018-09-06T09:58:36.567Z,1168.00
2018-09-06T09:59:36.504Z,1052.00
2018-09-06T10:00:36.400Z,1068.00
2018-09-06T10:01:36.345Z,1152.00
2018-09-06T10:02:36.251Z,1196.00
2018-09-06T10:04:36.108Z,1224.00
2018-09-06T10:05:36.020Z,1320.00
2018-09-06T10:06:36.021Z,1508.00
2018-09-06T10:07:35.854Z,1612.00
2018-09-06T10:08:35.777Z,1604.00
2018-09-06T10:09:35.705Z,1568.00
2018-09-06T10:10:35.616Z,1632.00
2018-09-06T10:11:35.556Z,1720.00
2018-09-06T10:12:35.486Z,1756.00
2018-09-06T10:13:35.372Z,1756.00
2018-09-06T10:14:35.308Z,1816.00
2018-09-06T10:15:35.227Z,1948.00
2018-09-06T10:16:35.141Z,2036.00
2018-09-06T10:17:36.086Z,2172.00
2018-09-06T10:18:34.976Z,2268.00
2018-09-06T10:21:17.291Z,2244.00
2018-09-06T10:22:17.231Z,2252.00
2018-09-06T10:23:17.133Z,2020.00
2018-09-06T10:24:17.842Z,1676.00
2018-09-06T10:25:16.971Z,1284.00
2018-09-06T10:26:16.911Z,992.00
2018-09-06T10:27:16.831Z,840.00
2018-09-06T10:28:16.738Z,816.00
2018-09-06T10:29:16.655Z,936.00
2018-09-06T10:30:16.573Z,1288.00
2018-09-06T10:31:16.490Z,1832.00
2018-09-06T10:32:16.431Z,2212.00
2018-09-06T10:33:16.348Z,2348.00
2018-09-06T10:34:16.262Z,2212.00
2018-09-06T10:35:16.199Z,1896.00
2018-09-06T10:36:16.104Z,1660.00
2018-09-06T10:37:16.213Z,2076.00
2018-09-06T10:38:16.433Z,2484.00
2018-09-06T10:39:16.017Z,2676.00
2018-09-06T10:40:17.405Z,2832.00
2018-09-06T10:41:16.328Z,2984.00
2018-09-06T10:42:15.632Z,3184.00
2018-09-06T10:43:15.629Z,3308.00
2018-09-06T10:44:15.473Z,3448.00
2018-09-06T10:45:15.385Z,3588.00
2018-09-06T10:46:15.315Z,3736.00
2018-09-06T10:47:15.231Z,3828.00
2018-09-06T10:48:15.154Z,3864.00
2018-09-06T10:49:15.111Z,3904.00
2018-09-06T10:51:57.303Z,3956.00
2018-09-06T10:52:57.222Z,3948.00
2018-09-06T10:53:57.190Z,3908.00
2018-09-06T10:54:57.078Z,3924.00
2018-09-06T10:55:56.979Z,3960.00
2018-09-06T10:56:56.918Z,4020.00
2018-09-06T10:57:56.818Z,4128.00
2018-09-06T10:58:56.774Z,4252.00
2018-09-06T10:59:56.673Z,4384.00
2018-09-06T11:00:56.625Z,4424.00
2018-09-06T11:01:56.506Z,4480.00
2018-09-06T11:02:56.432Z,4468.00
2018-09-06T11:03:56.366Z,4468.00
2018-09-06T11:06:38.310Z,4448.00
2018-09-06T11:07:38.220Z,4408.00
2018-09-06T11:08:38.137Z,4320.00
2018-09-06T11:09:38.097Z,4260.00
2018-09-06T11:10:37.981Z,4208.00
2018-09-06T11:11:37.907Z,4240.00
2018-09-06T11:12:37.828Z,4260.00
2018-09-06T11:13:37.751Z,4244.00
2018-09-06T11:14:37.693Z,4132.00
2018-09-06T11:17:19.815Z,4264.00
2018-09-06T11:20:01.835Z,3312.00
2018-09-06T11:21:01.766Z,3180.00
2018-09-06T11:22:01.985Z,3140.00
2018-09-06T11:23:01.580Z,3176.00
2018-09-06T11:24:01.490Z,3336.00
2018-09-06T11:25:01.443Z,3672.00
2018-09-06T11:26:01.324Z,3948.00
2018-09-06T11:27:01.255Z,4032.00
2018-09-06T11:28:01.177Z,4552.00
2018-09-06T11:29:01.094Z,6576.00
2018-09-06T11:30:01.041Z,7936.00
2018-09-06T11:31:00.953Z,9072.00
2018-09-06T11:32:00.872Z,10248.00
2018-09-06T11:34:42.833Z,11112.00
2018-09-06T11:35:42.751Z,11628.00
2018-09-06T11:36:42.660Z,10836.00
2018-09-06T11:37:42.583Z,9884.00
2018-09-06T11:38:42.492Z,8632.00
2018-09-06T11:39:42.424Z,7452.00
2018-09-06T11:40:42.365Z,6792.00
2018-09-06T11:41:42.311Z,6768.00
2018-09-06T11:42:42.195Z,6324.00
2018-09-06T11:45:24.333Z,7180.00
2018-09-06T11:46:24.320Z,8084.00
2018-09-06T11:47:24.236Z,9028.00
2018-09-06T11:50:06.314Z,8960.00
2018-09-06T11:51:06.267Z,8444.00
2018-09-06T11:52:06.155Z,8376.00
2018-09-06T11:54:48.313Z,9468.00
2018-09-06T11:57:30.338Z,9732.00
2018-09-06T12:00:12.317Z,9680.00
2018-09-06T12:01:12.284Z,9488.00
2018-09-06T12:02:12.213Z,9256.00
2018-09-06T12:03:12.095Z,9328.00
2018-09-06T12:04:12.012Z,9480.00
2018-09-06T12:05:11.932Z,9768.00
2018-09-06T12:06:11.880Z,10220.00
2018-09-06T12:07:12.807Z,10636.00
2018-09-06T12:08:11.697Z,11120.00
2018-09-06T12:10:53.834Z,12244.00
2018-09-06T12:11:53.737Z,12460.00
2018-09-06T12:12:53.693Z,12784.00
2018-09-06T12:13:53.651Z,13172.00
2018-09-06T12:14:53.519Z,13576.00
2018-09-06T12:15:53.427Z,13296.00
2018-09-06T12:18:35.360Z,13872.00
2018-09-06T12:19:35.361Z,14660.00
2018-09-06T12:20:35.193Z,14752.00
2018-09-06T12:23:17.345Z,11560.00
2018-09-06T12:24:17.257Z,10692.00
2018-09-06T12:25:17.223Z,11020.00
2018-09-06T12:26:17.100Z,11016.00
2018-09-06T12:27:17.043Z,9948.00
2018-09-06T12:28:16.958Z,8344.00
2018-09-06T12:29:16.862Z,7160.00
2018-09-06T12:30:16.794Z,6336.00
2018-09-06T12:31:16.703Z,5732.00
2018-09-06T12:32:16.694Z,5800.00
2018-09-06T12:33:16.660Z,6060.00
2018-09-06T12:34:16.487Z,5960.00
2018-09-06T12:35:16.399Z,5784.00
2018-09-06T12:36:16.337Z,6444.00
2018-09-06T12:37:16.280Z,7480.00
2018-09-06T12:38:16.181Z,7900.00
2018-09-06T12:39:16.101Z,7904.00
2018-09-06T12:40:16.030Z,8392.00
2018-09-06T12:41:15.967Z,8820.00
2018-09-06T12:42:15.876Z,8808.00
2018-09-06T12:43:15.905Z,8868.00
2018-09-06T12:44:15.715Z,8556.00
2018-09-06T12:45:15.631Z,8236.00
2018-09-06T12:46:15.552Z,7812.00
2018-09-06T12:47:15.492Z,7340.00
2018-09-06T12:48:15.414Z,6876.00
2018-09-06T12:49:15.350Z,6596.00
2018-09-06T12:51:57.425Z,7920.00
2018-09-06T12:52:57.292Z,8780.00
2018-09-06T12:53:57.181Z,9648.00
2018-09-06T12:54:57.132Z,10356.00
2018-09-06T12:55:57.029Z,10536.00
2018-09-06T12:58:39.371Z,10500.00
2018-09-06T12:59:40.296Z,10472.00
2018-09-06T13:00:39.195Z,9924.00
2018-09-06T13:01:39.123Z,9172.00
2018-09-06T13:02:39.042Z,8456.00
2018-09-06T13:03:38.974Z,7624.00
2018-09-06T13:04:38.909Z,6716.00
2018-09-06T13:07:20.857Z,4700.00
2018-09-06T13:08:20.765Z,4404.00
2018-09-06T13:09:20.696Z,4388.00
2018-09-06T13:10:20.641Z,4388.00
2018-09-06T13:11:20.564Z,4340.00
2018-09-06T13:12:20.461Z,4300.00
2018-09-06T13:13:20.381Z,4264.00
2018-09-06T13:14:20.350Z,4260.00
2018-09-06T13:15:20.246Z,4552.00
2018-09-06T13:16:20.151Z,4832.00
2018-09-06T13:17:20.075Z,4864.00
2018-09-06T13:18:20.056Z,4764.00
2018-09-06T13:19:19.934Z,4444.00
2018-09-06T13:20:19.852Z,3940.00
2018-09-06T13:21:19.765Z,3392.00
2018-09-06T13:22:19.710Z,2996.00
2018-09-06T13:23:19.605Z,2604.00
2018-09-06T13:24:19.547Z,2280.00
2018-09-06T13:25:19.481Z,2024.00
2018-09-06T13:26:19.418Z,1700.00
2018-09-06T13:27:19.323Z,1348.00
2018-09-06T13:28:19.232Z,1100.00
2018-09-06T13:29:19.155Z,956.00
2018-09-06T13:30:19.070Z,876.00
2018-09-06T13:31:18.982Z,832.00
2018-09-06T13:32:18.910Z,828.00
2018-09-06T13:33:18.829Z,800.00
2018-09-06T13:34:18.791Z,760.00
2018-09-06T13:35:18.685Z,740.00
2018-09-06T13:36:18.608Z,736.00
2018-09-06T13:37:18.656Z,752.00
2018-09-06T13:40:00.861Z,640.00
2018-09-06T13:41:00.791Z,644.00
2018-09-06T13:42:00.741Z,700.00
2018-09-06T13:43:00.648Z,748.00
2018-09-06T13:44:00.541Z,832.00
2018-09-06T13:45:00.499Z,952.00
2018-09-06T13:46:00.404Z,1116.00
2018-09-06T13:47:00.349Z,1356.00
2018-09-06T13:48:00.233Z,1740.00
2018-09-06T13:49:00.163Z,2296.00
2018-09-06T13:50:00.123Z,2780.00
2018-09-06T13:51:00.021Z,3144.00
2018-09-06T13:51:59.968Z,3164.00
2018-09-06T13:54:41.899Z,3956.00
2018-09-06T13:55:41.822Z,4668.00
2018-09-06T13:56:41.749Z,5136.00
2018-09-06T13:57:41.661Z,5860.00
2018-09-06T13:58:41.584Z,6644.00
2018-09-06T13:59:41.520Z,7524.00
2018-09-06T14:00:41.413Z,8620.00
2018-09-06T14:01:42.372Z,9568.00
2018-09-06T14:02:41.241Z,10256.00
2018-09-06T14:05:23.387Z,10308.00
2018-09-06T14:06:23.296Z,9892.00
2018-09-06T14:07:23.237Z,9676.00
2018-09-06T14:08:23.158Z,8824.00
2018-09-06T14:09:23.067Z,7904.00
2018-09-06T14:12:04.920Z,5848.00
2018-09-06T14:13:04.835Z,5844.00
2018-09-06T14:14:04.758Z,5900.00
2018-09-06T14:15:04.692Z,5832.00
2018-09-06T14:16:04.573Z,5976.00
2018-09-06T14:17:04.543Z,6436.00
2018-09-06T14:18:04.398Z,7340.00
2018-09-06T14:19:04.355Z,7360.00
2018-09-06T14:20:04.274Z,6936.00
2018-09-06T14:21:04.184Z,6528.00
2018-09-06T14:22:04.106Z,6488.00
2018-09-06T14:23:04.019Z,7248.00
2018-09-06T14:24:03.942Z,8468.00
2018-09-06T14:25:03.869Z,9940.00
2018-09-06T14:26:03.953Z,10568.00
2018-09-06T14:27:03.750Z,10804.00
2018-09-06T14:28:03.639Z,11048.00
2018-09-06T14:29:03.583Z,11668.00
2018-09-06T14:30:03.476Z,11848.00
2018-09-06T14:32:45.374Z,9532.00
2018-09-06T14:33:45.363Z,9136.00
2018-09-06T14:34:45.221Z,9120.00
2018-09-06T15:01:07.556Z,6768.00
2018-09-06T15:02:07.423Z,6932.00
2018-09-06T15:03:07.352Z,7244.00
2018-09-06T15:04:07.308Z,7348.00
2018-09-06T15:06:49.413Z,7824.00
2018-09-06T15:09:31.406Z,10124.00
2018-09-06T15:10:31.318Z,9900.00
2018-09-06T15:11:31.232Z,9212.00
2018-09-06T15:12:31.157Z,8092.00
2018-09-06T15:13:31.115Z,7064.00
2018-09-06T15:14:31.044Z,6380.00
2018-09-06T15:15:30.935Z,5444.00
2018-09-06T15:16:30.882Z,4700.00
2018-09-06T15:17:30.771Z,4108.00
2018-09-06T15:18:30.713Z,3684.00
2018-09-06T15:19:30.618Z,3624.00
2018-09-06T15:22:12.905Z,4684.00
2018-09-06T15:23:12.847Z,4928.00
2018-09-06T15:24:12.738Z,4344.00
2018-09-06T15:25:12.687Z,4140.00
2018-09-06T15:26:12.613Z,3928.00
2018-09-06T15:27:12.506Z,3632.00
2018-09-06T15:28:12.420Z,3248.00
2018-09-06T15:29:12.373Z,2764.00
2018-09-06T15:30:12.291Z,2248.00
2018-09-06T15:31:12.223Z,1944.00
2018-09-06T15:32:12.132Z,1728.00
2018-09-06T15:33:12.060Z,1604.00
2018-09-06T15:34:11.964Z,1480.00
2018-09-06T15:35:11.913Z,1304.00
2018-09-06T15:36:11.799Z,1132.00
2018-09-06T15:37:11.752Z,1112.00
2018-09-06T15:38:11.651Z,1204.00
2018-09-06T15:39:11.573Z,1404.00
2018-09-06T15:40:11.522Z,1768.00
2018-09-06T15:41:11.530Z,2512.00
2018-09-06T15:42:11.352Z,3920.00
2018-09-06T15:43:12.386Z,5404.00
2018-09-06T15:44:11.198Z,6652.00
2018-09-06T15:45:11.147Z,8020.00
2018-09-06T15:46:12.930Z,8380.00
2018-09-06T15:47:11.062Z,8488.00
2018-09-06T15:48:10.886Z,8240.00
2018-09-06T15:50:52.931Z,7212.00
2018-09-06T15:51:52.882Z,7004.00
2018-09-06T15:52:52.757Z,6840.00
2018-09-06T15:53:52.812Z,6500.00
2018-09-06T15:54:52.609Z,5880.00
2018-09-06T15:55:52.632Z,5088.00
2018-09-06T15:56:52.523Z,4492.00